Terminal Aerodrome Forecast
Issued by NWS Northern Indiana

Home | Current Version | Previous Version | Text Only | Print | Product List | Glossary On
Versions: 1 2 3 4 5 6 7 8 9 10 11 12 13 14 15 16
000
FTUS43 KIWX 150526
TAFFWA
TAF
KFWA 150526Z 1506/1606 15010KT 2SM -SN OVC025
     FM150900 14010KT 1 1/2SM -SN BR OVC015
     FM151500 16012KT 3/4SM -SN BR OVC008
     FM152100 22009KT 5SM -SN OVC007=

USA.gov is the U.S. government's official web portal to all federal, state and local government web resources and services.